Data for 05/04/2009

Time Sea-Level Adjusted Pressure Absolute Pressure Temperature Relative Humidity Dew Point   
(mb) (inHg) (mb) (inHg) (C) (F) (%) (C) (F)
00:05 1012 29.88 841 24.83 2.8 37.1 94 2 35.6
00:10 1012 29.88 841 24.83 2.7 36.8 95 1.9 35.4
00:15 1012 29.88 841 24.83 2.5 36.5 94 1.7 35.1
00:20 1012 29.88 841 24.83 2.5 36.4 95 1.8 35.2
00:25 1012 29.88 841 24.83 2.6 36.7 95 1.9 35.5
00:30 1012 29.88 841 24.83 2.6 36.7 95 1.9 35.5
00:35 1012 29.88 841 24.83 2.5 36.6 96 2 35.6
00:40 1012 29.88 841 24.83 2.6 36.6 96 2 35.6
00:45 1012 29.88 841 24.83 2.5 36.5 96 1.9 35.4
00:50 1012 29.88 841 24.83 2.5 36.4 96 1.9 35.5
00:55 1012 29.88 841 24.83 2.8 37.1 95 2.1 35.8
01:00 1012 29.88 841 24.83 3.1 37.5 94 2.2 36
01:05 1012 29.88 841 24.83 3.2 37.7 94 2.3 36.1
01:10 1012 29.88 841 24.83 3.4 38.2 94 2.6 36.7
01:15 1012 29.88 842 24.86 3.6 38.5 93 2.6 36.7
01:20 1012 29.88 842 24.86 3.7 38.6 93 2.7 36.8
01:25 1012 29.88 842 24.86 3.8 38.8 90 2.4 36.3
01:30 1013 29.91 842 24.86 3.5 38.4 91 2.2 36
01:35 1013 29.91 842 24.86 3.2 37.8 91 1.9 35.5
01:40 1013 29.91 842 24.86 3.1 37.5 91 1.8 35.2
01:45 1013 29.91 842 24.86 3 37.4 92 1.8 35.3
01:50 1013 29.91 842 24.86 3 37.4 91 1.7 35.1
01:55 1013 29.91 842 24.86 2.8 37.1 92 1.6 34.9
02:00 1013 29.91 842 24.86 2.8 37 92 1.5 34.7
02:05 1013 29.91 842 24.86 2.7 36.9 91 1.5 34.6
02:10 1013 29.91 842 24.86 2.9 37.2 90 1.5 34.7
02:15 1013 29.91 842 24.86 3 37.4 90 1.5 34.8
02:20 1013 29.91 843 24.89 3.1 37.6 90 1.5 34.8
02:25 1013 29.91 843 24.89 3.1 37.6 90 1.6 34.9
02:30 1013 29.91 843 24.89 3.2 37.8 89 1.6 34.9
02:35 1013 29.91 843 24.89 3.5 38.3 87 1.6 34.9
02:40 1013 29.91 843 24.89 3.7 38.6 86 1.5 34.7
02:45 1013 29.91 843 24.89 3.9 39.1 82 1.1 34.1
02:50 1013 29.91 843 24.89 4.2 39.5 82 1.4 34.5
02:55 1013 29.91 843 24.89 4.2 39.6 82 1.4 34.6
03:00 1014 29.94 843 24.89 4.2 39.6 82 1.4 34.5
03:05 1014 29.94 843 24.89 4.2 39.6 81 1.3 34.3
03:10 1014 29.94 843 24.89 4.3 39.7 82 1.4 34.5
03:15 1014 29.94 843 24.89 4.2 39.6 80 1.1 34
03:20 1014 29.94 843 24.89 4.3 39.7 82 1.4 34.5
03:25 1014 29.94 843 24.89 4.2 39.6 82 1.4 34.5
03:30 1014 29.94 843 24.89 4.2 39.6 82 1.5 34.7
03:35 1014 29.94 843 24.89 4.2 39.6 81 1.3 34.3
03:40 1014 29.94 843 24.89 4.2 39.6 83 1.6 34.8
03:45 1014 29.94 843 24.89 4.2 39.6 82 1.4 34.6
03:50 1014 29.94 843 24.89 4.2 39.5 83 1.6 34.9
03:55 1014 29.94 843 24.89 4.1 39.4 84 1.6 34.9
04:00 1014 29.94 843 24.89 4.1 39.4 84 1.6 35
04:05 1014 29.94 843 24.89 4.1 39.4 85 1.8 35.3
04:10 1014 29.94 843 24.89 4.1 39.4 85 1.8 35.2
04:15 1014 29.94 843 24.89 4.1 39.4 85 1.8 35.3
04:20 1014 29.94 843 24.89 4 39.3 86 2 35.6
04:25 1014 29.94 844 24.92 4 39.3 85 1.8 35.2
04:30 1014 29.94 844 24.92 3.9 39.1 86 1.9 35.3
04:35 1014 29.94 844 24.92 3.8 38.9 86 1.6 34.9
04:40 1014 29.94 844 24.92 3.8 38.9 86 1.7 35.1
04:45 1014 29.94 844 24.92 3.8 38.8 86 1.7 35
04:50 1014 29.94 844 24.92 3.7 38.7 87 1.7 35.1
04:55 1015 29.97 844 24.92 3.8 38.8 86 1.7 35
05:00 1015 29.97 844 24.92 3.8 38.8 86 1.7 35.1
05:05 1015 29.97 844 24.92 3.8 38.9 85 1.6 34.9
05:10 1015 29.97 844 24.92 3.9 39 85 1.6 34.9
05:15 1015 29.97 844 24.92 3.9 39 86 1.8 35.2
05:20 1015 29.97 844 24.92 3.9 39 86 1.8 35.3
05:25 1015 29.97 844 24.92 3.8 38.9 86 1.6 34.9
05:30 1015 29.97 844 24.92 3.7 38.7 86 1.5 34.8
05:35 1015 29.97 844 24.92 3.6 38.5 86 1.6 34.8
05:40 1015 29.97 844 24.92 3.6 38.4 86 1.4 34.6
05:45 1015 29.97 844 24.92 3.5 38.2 86 1.4 34.5
05:50 1015 29.97 844 24.92 3.4 38.1 87 1.4 34.4
05:55 1015 29.97 844 24.92 3.4 38.1 85 1.1 34
06:00 1015 29.97 845 24.95 3.4 38.1 85 1.2 34.1
06:05 1015 29.97 845 24.95 3.4 38 85 1.1 34
06:10 1015 29.97 845 24.95 3.3 37.9 84 0.8 33.4
06:15 1015 29.97 845 24.95 3.3 37.9 81 0.4 32.7
06:20 1015 29.97 845 24.95 3.2 37.7 78 -0.4 31.3
06:25 1015 29.97 845 24.95 3.1 37.5 75 -1 30.2
06:30 1015 29.97 845 24.95 3 37.4 71 -1.7 28.9
06:35 1015 29.97 845 24.95 3 37.3 68 -2.3 27.9
06:40 1015 29.97 845 24.95 3 37.3 69 -2.1 28.2
06:45 1015 29.97 845 24.95 2.8 37.1 64 -3.4 25.9
06:50 1015 29.97 845 24.95 2.9 37.3 62 -3.7 25.3
06:55 1016 30 845 24.95 3 37.4 63 -3.3 26.1
07:00 1016 30 845 24.95 2.9 37.2 66 -2.9 26.8
07:05 1016 30 845 24.95 2.8 37 64 -3.3 26.1
07:10 1016 30 845 24.95 2.9 37.3 63 -3.4 25.8
07:15 1016 30 845 24.95 3.5 38.3 59 -3.8 25.1
07:20 1016 30 845 24.95 3.9 39 57 -3.9 24.9
07:25 1016 30 845 24.95 4.1 39.4 56 -3.9 25.1
07:30 1016 30 845 24.95 4.3 39.8 53 -4.4 24.1
07:35 1016 30 846 24.98 4.4 39.9 53 -4.4 24.1
07:40 1016 30 846 24.98 4.5 40.1 56 -3.6 25.6
07:45 1016 30 846 24.98 4.3 39.7 59 -3.1 26.5
07:50 1017 30.03 846 24.98 4.7 40.4 55 -3.6 25.5
07:55 1017 30.03 846 24.98 4.7 40.5 52 -4.2 24.5
08:00 1017 30.03 846 24.98 4.8 40.6 53 -4.1 24.7
08:05 1017 30.03 846 24.98 4.9 40.8 54 -3.5 25.6
08:10 1017 30.03 846 24.98 5.3 41.5 48 -4.7 23.5
08:15 1017 30.03 846 24.98 5.3 41.6 50 -4.2 24.5
08:20 1017 30.03 846 24.98 5.5 41.9 47 -5.1 22.9
08:25 1017 30.03 846 24.98 5.3 41.6 47 -5.1 22.9
08:30 1017 30.03 846 24.98 5 41 48 -5.2 22.6
08:35 1017 30.03 846 24.98 4.8 40.7 49 -4.9 23.2
08:40 1017 30.03 846 24.98 4.7 40.5 50 -5 23.1
08:45 1017 30.03 846 24.98 4.8 40.7 50 -4.6 23.6
08:50 1017 30.03 846 24.98 5 41.1 49 -4.8 23.3
08:55 1017 30.03 846 24.98 5.2 41.4 47 -5.2 22.6
09:00 1017 30.03 846 24.98 5.3 41.6 46 -5.3 22.5
09:05 1017 30.03 846 24.98 5.6 42.2 48 -4.6 23.7
09:10 1017 30.03 846 24.98 6 42.8 47 -4.4 24.1
09:15 1017 30.03 846 24.98 6.4 43.5 47 -4.1 24.7
09:20 1017 30.03 846 24.98 6.5 43.7 43 -5.1 22.9
09:25 1017 30.03 846 24.98 6.5 43.7 44 -4.9 23.1
09:30 1017 30.03 846 24.98 6.2 43.2 43 -5.5 22
09:35 1017 30.03 846 24.98 6.5 43.7 41 -5.8 21.5
09:40 1017 30.03 846 24.98 7.3 45.2 34 -7.6 18.4
09:45 1017 30.03 846 24.98 7 44.6 38 -6.2 20.8
09:50 1017 30.03 846 24.98 6.9 44.4 34 -8 17.6
09:55 1017 30.03 846 24.98 7.5 45.5 33 -7.7 18.1
10:00 1017 30.03 846 24.98 7.2 44.9 35 -7.3 18.9
10:05 1017 30.03 846 24.98 7.6 45.6 35 -6.8 19.8
10:10 1017 30.03 846 24.98 7.3 45.2 33 -7.8 17.9
10:15 1017 30.03 846 24.98 7 44.6 34 -7.7 18.1
10:20 1017 30.03 846 24.98 7 44.6 34 -7.8 17.9
10:25 1017 30.03 846 24.98 7.1 44.8 33 -8 17.7
10:30 1017 30.03 846 24.98 7.5 45.5 31 -8.4 16.9
10:35 1017 30.03 846 24.98 7.6 45.8 31 -8.5 16.7
10:40 1017 30.03 846 24.98 8.2 46.7 30 -8.3 17
10:45 1017 30.03 846 24.98 8.5 47.3 30 -8 17.5
10:50 1017 30.03 846 24.98 8.8 47.9 30 -7.7 18.2
10:55 1017 30.03 846 24.98 9 48.2 29 -8 17.6
11:00 1017 30.03 846 24.98 8.9 48.1 31 -7.3 18.9
11:05 1017 30.03 846 24.98 8.9 48 31 -7.4 18.8
11:10 1017 30.03 847 25.01 8.6 47.5 32 -7 19.4
11:15 1017 30.03 847 25.01 7.6 45.8 32 -8 17.6
11:20 1017 30.03 847 25.01 8 46.5 33 -7.2 19.1
11:25 1017 30.03 846 24.98 8.7 47.7 32 -7 19.4
11:30 1017 30.03 847 25.01 8.9 48.1 32 -6.8 19.7
11:35 1017 30.03 847 25.01 9.6 49.2 31 -6.8 19.8
11:40 1017 30.03 847 25.01 9.7 49.4 30 -7.2 19.1
11:45 1017 30.03 846 24.98 9.8 49.6 32 -6.2 20.9
11:50 1017 30.03 846 24.98 8.9 48 32 -6.7 19.9
11:55 1017 30.03 846 24.98 8.7 47.7 32 -7.1 19.3
12:00 1017 30.03 846 24.98 9.1 48.3 32 -6.9 19.6
12:05 1017 30.03 846 24.98 8.4 47.1 33 -7.1 19.2
12:10 1017 30.03 846 24.98 8.9 48 30 -7.8 17.9
12:15 1017 30.03 846 24.98 9.1 48.4 31 -7 19.4
12:20 1017 30.03 846 24.98 9.1 48.3 29 -7.9 17.7
12:25 1017 30.03 846 24.98 9 48.3 30 -7.8 18
12:30 1017 30.03 846 24.98 9.8 49.7 28 -8 17.6
12:35 1017 30.03 846 24.98 9.5 49.1 28 -8 17.7
12:40 1017 30.03 846 24.98 8.9 48 29 -8.2 17.2
12:45 1017 30.03 846 24.98 9.5 49.1 29 -7.5 18.5
12:50 1017 30.03 846 24.98 9.8 49.6 27 -8.2 17.3
12:55 1017 30.03 846 24.98 9.2 48.6 29 -8.1 17.4
13:00 1017 30.03 846 24.98 8.8 47.8 30 -8 17.6
13:05 1017 30.03 846 24.98 9.7 49.4 29 -7.5 18.6
13:10 1017 30.03 846 24.98 10.6 51.1 27 -7.8 18
13:15 1017 30.03 846 24.98 9.6 49.2 28 -7.8 17.9
13:20 1017 30.03 846 24.98 10.1 50.2 28 -7.6 18.3
13:25 1017 30.03 846 24.98 9.7 49.5 28 -8.1 17.4
13:30 1017 30.03 846 24.98 10.4 50.7 27 -7.7 18.1
13:35 1017 30.03 846 24.98 10.8 51.5 25 -8.3 17.1
13:40 1016 30 846 24.98 10.5 50.8 26 -8.3 17.1
13:45 1016 30 846 24.98 10.6 51.2 23 -9.4 15
13:50 1016 30 846 24.98 10.3 50.5 26 -8.2 17.2
13:55 1016 30 846 24.98 10.9 51.6 24 -8.7 16.3
14:00 1016 30 846 24.98 10.6 51.1 24 -9.2 15.4
14:05 1016 30 845 24.95 11.6 52.8 23 -9 15.7
14:10 1016 30 845 24.95 11.5 52.8 24 -8.5 16.7
14:15 1016 30 845 24.95 11.4 52.5 24 -8.6 16.6
14:20 1016 30 845 24.95 11.6 52.9 24 -8.5 16.7
14:25 1016 30 845 24.95 11.7 53.1 24 -8 17.6
14:30 1016 30 845 24.95 11.1 52.1 23 -9 15.9
14:35 1016 30 845 24.95 11.9 53.4 22 -9.2 15.4
14:40 1016 30 845 24.95 12.1 53.9 24 -8 17.5
14:45 1016 30 845 24.95 11.9 53.4 21 -9.8 14.4
14:50 1016 30 845 24.95 11.2 52.1 22 -9.7 14.6
14:55 1016 30 845 24.95 10.6 51.1 23 -9.6 14.7
15:00 1016 30 845 24.95 10.2 50.4 24 -9.4 15.1
15:05 1016 30 845 24.95 11.2 52.1 23 -9.2 15.5
15:10 1016 30 845 24.95 11.2 52.1 23 -9.4 15.1
15:15 1016 30 845 24.95 10.8 51.5 25 -8.5 16.8
15:20 1016 30 845 24.95 11.1 52 23 -9.2 15.4
15:25 1016 30 845 24.95 11.5 52.7 23 -8.7 16.4
15:30 1016 30 845 24.95 11.6 52.9 23 -9.1 15.6
15:35 1016 30 845 24.95 11.8 53.3 24 -8.2 17.3
15:40 1016 30 845 24.95 11.8 53.2 22 -9.2 15.4
15:45 1016 30 845 24.95 12.1 53.7 20 -10 14.1
15:50 1015 29.97 845 24.95 12.3 54.2 20 -9.7 14.5
15:55 1015 29.97 845 24.95 12.7 54.9 21 -8.9 15.9
16:00 1015 29.97 844 24.92 13.1 55.6 22 -7.9 17.7
16:05 1015 29.97 844 24.92 12.5 54.5 24 -7.7 18.1
16:10 1015 29.97 844 24.92 12.1 53.8 23 -8.5 16.8
16:15 1015 29.97 844 24.92 12.2 53.9 22 -9.2 15.5
16:20 1015 29.97 844 24.92 12.3 54.2 24 -7.5 18.6
16:25 1015 29.97 844 24.92 11.5 52.6 25 -8 17.6
16:30 1015 29.97 844 24.92 11.7 53.1 24 -8.2 17.3
16:35 1015 29.97 844 24.92 12 53.6 23 -8.4 16.9
16:40 1015 29.97 844 24.92 12.4 54.2 22 -8.8 16.2
16:45 1015 29.97 844 24.92 12.6 54.7 21 -9 15.8
16:50 1015 29.97 844 24.92 12.5 54.5 22 -8.3 17
16:55 1015 29.97 844 24.92 12.8 55.1 23 -7.9 17.8
17:00 1015 29.97 844 24.92 13 55.5 21 -8.5 16.7
17:05 1015 29.97 844 24.92 12.8 55 22 -8.6 16.5
17:10 1015 29.97 844 24.92 12.8 55 24 -7.5 18.6
17:15 1014 29.94 844 24.92 12.1 53.7 22 -9 15.8
17:20 1014 29.94 844 24.92 12.5 54.6 21 -9.4 15.2
17:25 1014 29.94 843 24.89 12.6 54.7 19 -10.3 13.5
17:30 1014 29.94 843 24.89 12.8 55 20 -9.8 14.4
17:35 1014 29.94 843 24.89 12.3 54.2 21 -9.5 15
17:40 1014 29.94 843 24.89 12.8 55 21 -9.2 15.5
17:45 1014 29.94 843 24.89 13.2 55.8 19 -10.2 13.7
17:50 1014 29.94 843 24.89 13.2 55.8 20 -9.2 15.4
17:55 1014 29.94 843 24.89 13.2 55.7 20 -9.6 14.7
18:00 1014 29.94 843 24.89 13 55.4 20 -9.3 15.2
18:05 1014 29.94 843 24.89 13.1 55.6 20 -9.1 15.7
18:10 1014 29.94 843 24.89 13.1 55.7 19 -9.7 14.6
18:15 1014 29.94 843 24.89 13.2 55.8 19 -9.6 14.7
18:20 1014 29.94 843 24.89 12.8 55.1 21 -9 15.9
18:25 1014 29.94 843 24.89 12.6 54.7 20 -9.5 14.9
18:30 1014 29.94 843 24.89 12.5 54.5 20 -9.8 14.3
18:35 1014 29.94 843 24.89 12.8 55 20 -9.4 15
18:40 1014 29.94 843 24.89 12.9 55.2 20 -9.5 14.9
18:45 1014 29.94 843 24.89 12.6 54.7 21 -9.2 15.4
18:50 1014 29.94 843 24.89 12.6 54.7 22 -8.4 17
18:55 1013 29.91 843 24.89 12.5 54.5 21 -9.2 15.4
19:00 1013 29.91 843 24.89 12.1 53.7 23 -8.4 16.9
19:05 1013 29.91 843 24.89 12 53.6 22 -8.9 16
19:10 1013 29.91 843 24.89 12 53.7 22 -9.1 15.7
19:15 1013 29.91 842 24.86 11.9 53.4 23 -8.7 16.3
19:20 1013 29.91 842 24.86 11.9 53.4 22 -9.2 15.4
19:25 1013 29.91 842 24.86 11.7 53.1 23 -8.8 16.2
19:30 1013 29.91 842 24.86 11.8 53.3 26 -7 19.4
19:35 1013 29.91 842 24.86 11.6 53 27 -6.8 19.7
19:40 1013 29.91 842 24.86 11.4 52.4 25 -7.7 18.1
19:45 1013 29.91 842 24.86 11.3 52.3 27 -7 19.4
19:50 1013 29.91 842 24.86 11.2 52.1 28 -6.6 20.2
19:55 1013 29.91 842 24.86 10.8 51.5 34 -4.2 24.4
20:00 1013 29.91 842 24.86 10.6 51.1 32 -5.4 22.3
20:05 1013 29.91 842 24.86 10.4 50.7 35 -4.4 24.1
20:10 1013 29.91 842 24.86 10.2 50.3 34 -5.1 22.9
20:15 1013 29.91 842 24.86 10.1 50.1 36 -4.4 24.1
20:20 1013 29.91 842 24.86 10.1 50.3 32 -5.6 21.9
20:25 1013 29.91 842 24.86 10.1 50.2 33 -5.3 22.4
20:30 1012 29.88 842 24.86 9.9 49.8 35 -4.9 23.3
20:35 1012 29.88 842 24.86 9.9 49.7 36 -4.4 24
20:40 1012 29.88 842 24.86 9.8 49.6 36 -4.5 24
20:45 1012 29.88 842 24.86 10 49.9 33 -5.4 22.3
20:50 1012 29.88 842 24.86 10.2 50.3 33 -5.4 22.3
20:55 1012 29.88 842 24.86 10.2 50.3 33 -5.4 22.2
21:00 1012 29.88 842 24.86 10.1 50.2 33 -5.6 21.9
21:05 1012 29.88 842 24.86 10.1 50.2 32 -5.7 21.8
21:10 1012 29.88 842 24.86 10.2 50.3 32 -5.8 21.6
21:15 1012 29.88 842 24.86 9.9 49.8 33 -5.5 22.2
21:20 1012 29.88 842 24.86 9.6 49.2 36 -4.9 23.2
21:25 1012 29.88 842 24.86 9.2 48.6 37 -4.6 23.7
21:30 1012 29.88 841 24.83 9 48.2 38 -4.5 23.9
21:35 1012 29.88 842 24.86 8.8 47.8 39 -4.6 23.8
21:40 1012 29.88 842 24.86 8.6 47.5 39 -4.5 24
21:45 1012 29.88 842 24.86 8.5 47.3 41 -4.1 24.7
21:50 1012 29.88 841 24.83 8.4 47.1 40 -4.5 23.9
21:55 1012 29.88 841 24.83 8.5 47.3 38 -5 23.1
22:00 1012 29.88 841 24.83 8.7 47.6 40 -4.3 24.3
22:05 1012 29.88 841 24.83 8.5 47.3 41 -4.1 24.6
22:10 1012 29.88 841 24.83 8.4 47.1 41 -4.1 24.6
22:15 1012 29.88 841 24.83 8.4 47.2 41 -4 24.8
22:20 1012 29.88 841 24.83 8.3 47 40 -4.3 24.2
22:25 1012 29.88 841 24.83 8.3 46.9 40 -4.4 24
22:30 1012 29.88 841 24.83 8.3 46.9 41 -4.1 24.6
22:35 1012 29.88 841 24.83 8.2 46.7 41 -4.4 24.2
22:40 1011 29.85 841 24.83 8.4 47.1 40 -4.3 24.2
22:45 1011 29.85 841 24.83 8.2 46.8 42 -4 24.9
22:50 1011 29.85 840 24.81 7.8 46.1 42 -4.2 24.4
22:55 1011 29.85 840 24.81 7.8 46 43 -4 24.8
23:00 1011 29.85 840 24.81 7.6 45.8 44 -3.9 24.9
23:05 1011 29.85 840 24.81 7.5 45.5 44 -4 24.7
23:10 1011 29.85 840 24.81 7.6 45.6 44 -4 24.9
23:15 1011 29.85 840 24.81 7.4 45.4 44 -4 24.8
23:20 1011 29.85 840 24.81 7.4 45.3 45 -3.7 25.3
23:25 1011 29.85 840 24.81 7.2 44.9 47 -3.4 25.9
23:30 1010 29.83 840 24.81 6.6 43.8 51 -2.7 27.1
23:35 1010 29.83 840 24.81 5.9 42.6 53 -2.9 26.8
23:40 1010 29.83 840 24.81 5.8 42.4 53 -3.1 26.4
23:45 1010 29.83 839 24.78 5.9 42.6 51 -3.4 25.9
23:50 1010 29.83 839 24.78 6.1 42.9 51 -3.3 26.1
23:55 1010 29.83 839 24.78 6.1 43 50 -3.4 25.8
24:00 1010 29.83 839 24.78 6.2 43.2 49 -3.7 25.3